Time;durP1;ratioP1;P1;durP2;ratioP2;P2;SDS_P1;SDS_P2;PMS_P1;PMS_P2;Temp;Humidity;BMP_temperature;BMP_pressure;BME280_temperature;BME280_humidity;BME280_pressure;Samples;Min_cycle;Max_cycle;Signal;HPM_P1;HPM_P2
2022/12/19 00:01:32;;;;;;;72.03;29.73;;;-2.80;99.90;;;;;;5081741;28;20032;-68
2022/12/19 00:04:00;;;;;;;68.10;29.13;;;-2.80;99.90;;;;;;5072172;28;20039;-69
2022/12/19 00:06:27;;;;;;;70.20;30.30;;;-2.70;99.90;;;;;;5072673;28;20111;-69
2022/12/19 00:08:54;;;;;;;69.40;29.42;;;-2.70;99.90;;;;;;5071718;28;20060;-69
2022/12/19 00:11:21;;;;;;;65.65;29.30;;;-2.60;99.90;;;;;;5072606;28;20025;-69
2022/12/19 00:13:47;;;;;;;69.65;29.77;;;-2.60;99.90;;;;;;5069767;28;20133;-69
2022/12/19 00:16:16;;;;;;;64.35;28.30;;;-2.60;99.90;;;;;;5073463;28;20041;-68
2022/12/19 00:18:43;;;;;;;75.40;29.90;;;-2.60;99.90;;;;;;5071271;28;20116;-69
2022/12/19 00:21:11;;;;;;;68.60;29.55;;;-2.50;99.90;;;;;;5072756;28;20040;-68
2022/12/19 00:23:37;;;;;;;63.78;28.80;;;-2.50;99.90;;;;;;5070604;28;20099;-69
2022/12/19 00:26:20;;;;;;;68.13;28.20;;;-2.50;99.90;;;;;;5071964;28;20107;-68
2022/12/19 00:28:52;;;;;;;66.43;28.95;;;-2.50;99.90;;;;;;5061238;28;20048;-69
2022/12/19 00:31:19;;;;;;;68.43;29.10;;;-2.50;99.90;;;;;;5067811;28;20086;-68
2022/12/19 00:33:45;;;;;;;66.05;28.58;;;-2.50;99.90;;;;;;5078684;28;20070;-68
2022/12/19 00:36:14;;;;;;;73.32;30.85;;;-2.50;99.90;;;;;;5072371;28;20366;-68
2022/12/19 00:38:40;;;;;;;67.20;30.17;;;-2.40;99.90;;;;;;5070282;28;20090;-68
2022/12/19 00:41:11;;;;;;;63.38;29.77;;;-2.40;99.90;;;;;;5071659;28;20255;-68
2022/12/19 00:43:37;;;;;;;62.38;28.05;;;-2.40;99.90;;;;;;5070654;28;20031;-68
2022/12/19 00:46:04;;;;;;;64.95;27.02;;;-2.40;99.90;;;;;;5072089;28;20033;-69
2022/12/19 00:48:31;;;;;;;69.32;29.38;;;-2.40;99.90;;;;;;5070807;28;20028;-70
2022/12/19 00:51:01;;;;;;;65.85;28.95;;;-2.40;99.90;;;;;;5071965;28;20043;-69
2022/12/19 00:53:27;;;;;;;68.78;29.05;;;-2.30;99.90;;;;;;5058047;28;20028;-68
2022/12/19 00:55:53;;;;;;;66.97;29.42;;;-2.30;99.90;;;;;;5070947;28;20040;-68
2022/12/19 00:58:18;;;;;;;71.38;31.25;;;-2.20;99.90;;;;;;5072763;28;20390;-68
2022/12/19 01:00:44;;;;;;;68.55;28.80;;;-2.10;99.90;;;;;;5071007;28;20099;-69
2022/12/19 01:03:10;;;;;;;72.30;31.45;;;-2.10;99.90;;;;;;5070608;28;20385;-68
2022/12/19 01:05:35;;;;;;;69.00;30.48;;;-2.10;99.90;;;;;;5071035;28;20032;-68
2022/12/19 01:08:01;;;;;;;62.22;27.73;;;-2.00;99.90;;;;;;5070811;28;20504;-68
2022/12/19 01:10:26;;;;;;;67.00;30.00;;;-2.00;99.90;;;;;;5071038;28;20021;-68
2022/12/19 01:12:52;;;;;;;69.18;30.25;;;-2.00;99.90;;;;;;5069500;28;20154;-68
2022/12/19 01:15:19;;;;;;;63.83;28.98;;;-2.00;99.90;;;;;;5066234;28;20036;-68
2022/12/19 01:17:46;;;;;;;65.28;28.23;;;-1.90;99.90;;;;;;5068945;28;20486;-68
2022/12/19 01:20:17;;;;;;;73.35;29.55;;;-1.80;99.90;;;;;;5070258;28;20075;-68
2022/12/19 01:22:44;;;;;;;64.25;28.27;;;-1.80;99.90;;;;;;5070219;28;20037;-68
2022/12/19 01:25:10;;;;;;;63.13;27.15;;;-1.80;99.90;;;;;;5070639;28;20044;-68
2022/12/19 01:27:36;;;;;;;65.25;29.17;;;-1.80;99.90;;;;;;5069870;28;20021;-68
2022/12/19 01:30:03;;;;;;;69.18;29.55;;;-1.80;99.90;;;;;;5057834;28;20044;-67
2022/12/19 01:32:29;;;;;;;71.15;29.85;;;-1.80;99.90;;;;;;5071584;28;20027;-68
2022/12/19 01:34:55;;;;;;;65.05;28.70;;;-1.90;99.90;;;;;;5070908;28;20454;-68
2022/12/19 01:37:21;;;;;;;65.63;30.35;;;-1.90;99.90;;;;;;5069988;28;20470;-68
2022/12/19 01:39:46;;;;;;;74.25;30.00;;;-1.90;99.90;;;;;;5069156;28;20040;-68
2022/12/19 01:42:20;;;;;;;68.65;30.17;;;-1.90;99.90;;;;;;5070561;28;20377;-67
2022/12/19 01:45:04;;;;;;;66.63;29.02;;;-1.80;99.90;;;;;;5070601;28;20036;-68
2022/12/19 01:47:34;;;;;;;65.25;28.48;;;-1.80;99.90;;;;;;5068640;28;20445;-68
2022/12/19 01:50:02;;;;;;;65.30;28.25;;;-1.80;99.90;;;;;;5071966;28;20473;-68
2022/12/19 01:52:28;;;;;;;65.15;28.70;;;-1.90;99.90;;;;;;5070339;28;20028;-69
2022/12/19 01:54:54;;;;;;;66.10;29.33;;;-1.90;99.90;;;;;;5070299;28;20512;-67
2022/12/19 01:57:20;;;;;;;68.35;30.58;;;-1.90;99.90;;;;;;5076404;28;20024;-68
2022/12/19 01:59:53;;;;;;;67.85;30.48;;;-1.90;99.90;;;;;;5071260;28;20086;-68
2022/12/19 02:02:31;;;;;;;68.13;30.90;;;-1.90;99.90;;;;;;5069939;28;20021;-68
2022/12/19 02:04:57;;;;;;;64.72;29.00;;;-1.90;99.90;;;;;;5070738;28;20047;-68
2022/12/19 02:07:25;;;;;;;71.10;30.55;;;-1.90;99.90;;;;;;5075750;28;20474;-68
2022/12/19 02:09:53;;;;;;;67.18;30.52;;;-1.90;99.90;;;;;;5069385;28;20663;-67
2022/12/19 02:12:19;;;;;;;62.83;29.38;;;-1.80;99.90;;;;;;5069112;28;20107;-67
2022/12/19 02:14:45;;;;;;;71.68;31.38;;;-1.80;99.90;;;;;;5070626;28;20111;-68
2022/12/19 02:17:31;;;;;;;72.20;31.63;;;-1.70;99.90;;;;;;5070162;28;20474;-68
2022/12/19 02:20:19;;;;;;;67.78;31.63;;;-1.60;99.90;;;;;;5071193;28;20028;-68
2022/12/19 02:23:23;;;;;;;69.45;30.98;;;-1.70;99.90;;;;;;5063305;28;20537;-67
2022/12/19 02:26:16;;;;;;;71.30;33.30;;;-1.70;99.90;;;;;;5067944;28;20103;-68
2022/12/19 02:29:00;;;;;;;68.70;30.60;;;-1.70;99.90;;;;;;5061508;28;20508;-67
2022/12/19 02:31:32;;;;;;;77.43;32.60;;;-1.70;99.90;;;;;;5063055;28;20150;-68
2022/12/19 02:34:25;;;;;;;66.63;32.15;;;-1.70;99.90;;;;;;5055288;28;20037;-67
2022/12/19 02:37:03;;;;;;;73.80;32.80;;;-1.70;99.90;;;;;;5068865;28;20178;-68
2022/12/19 02:39:34;;;;;;;69.78;34.15;;;-1.70;99.90;;;;;;5069537;28;20410;-69
2022/12/19 02:42:02;;;;;;;79.38;33.35;;;-1.60;99.90;;;;;;5069103;28;20021;-67
2022/12/19 02:44:32;;;;;;;76.40;34.83;;;-1.60;99.90;;;;;;5070750;28;20428;-68
2022/12/19 02:47:00;;;;;;;75.93;33.97;;;-1.40;99.90;;;;;;5057616;28;20052;-67
2022/12/19 02:49:28;;;;;;;79.70;34.78;;;-1.60;99.90;;;;;;5070085;28;20103;-67
2022/12/19 02:51:53;;;;;;;79.45;34.22;;;-1.60;99.90;;;;;;5069167;28;20070;-67
2022/12/19 02:54:19;;;;;;;70.13;32.88;;;-1.50;99.90;;;;;;5070692;28;20056;-67
2022/12/19 02:57:14;;;;;;;76.50;35.80;;;-1.40;99.90;;;;;;5070136;28;20067;-68
2022/12/19 02:59:52;;;;;;;75.22;34.78;;;-1.40;99.90;;;;;;5037952;28;20052;-67
2022/12/19 03:02:48;;;;;;;74.22;32.75;;;-1.30;99.90;;;;;;5073097;28;20060;-67
2022/12/19 03:05:43;;;;;;;74.28;33.63;;;-1.40;99.90;;;;;;5074368;28;20043;-68
2022/12/19 03:08:37;;;;;;;74.18;32.72;;;-1.50;99.90;;;;;;5073163;28;20028;-68
2022/12/19 03:11:10;;;;;;;71.60;33.40;;;-1.60;99.90;;;;;;5073942;28;20086;-67
2022/12/19 03:13:54;;;;;;;76.28;33.53;;;-1.60;99.90;;;;;;5071271;28;20059;-68
2022/12/19 03:16:20;;;;;;;76.10;33.08;;;-1.60;99.90;;;;;;5073505;28;20033;-68
2022/12/19 03:18:45;;;;;;;74.97;34.10;;;-1.60;99.90;;;;;;5072490;28;20085;-69
2022/12/19 03:21:39;;;;;;;82.95;35.08;;;-1.60;99.90;;;;;;5073204;28;20033;-67
2022/12/19 03:24:07;;;;;;;76.28;34.10;;;-1.50;99.90;;;;;;5073563;28;20523;-68
2022/12/19 03:26:43;;;;;;;71.40;33.67;;;-1.40;99.90;;;;;;5071867;28;20064;-69
2022/12/19 03:29:21;;;;;;;69.32;33.17;;;-1.40;99.90;;;;;;5054226;28;20044;-69
2022/12/19 03:31:47;;;;;;;66.10;30.95;;;-1.50;99.90;;;;;;5075669;28;20043;-69
2022/12/19 03:34:30;;;;;;;74.90;33.03;;;-1.50;99.90;;;;;;5073552;28;20035;-68
2022/12/19 03:37:02;;;;;;;71.32;33.75;;;-1.40;99.90;;;;;;5071922;28;20032;-69
2022/12/19 03:39:29;;;;;;;76.68;33.80;;;-1.40;99.90;;;;;;5073213;28;20040;-69
2022/12/19 03:44:42;;;;;;;71.18;32.95;;;-1.30;99.90;;;;;;5072876;28;20078;-68
2022/12/19 03:47:23;;;;;;;72.25;32.90;;;-1.30;99.90;;;;;;5075167;28;20043;-68
2022/12/19 03:49:49;;;;;;;70.63;35.03;;;-1.40;99.90;;;;;;5072621;28;20020;-69
2022/12/19 03:52:36;;;;;;;68.88;32.92;;;-1.40;99.90;;;;;;5072903;28;20052;-68
2022/12/19 03:55:08;;;;;;;75.50;34.80;;;-1.30;99.90;;;;;;5072940;28;20100;-68
2022/12/19 03:58:05;;;;;;;76.95;33.97;;;-1.20;99.90;;;;;;5073521;28;20032;-69
2022/12/19 04:00:35;;;;;;;73.47;32.35;;;-1.10;99.90;;;;;;5063309;28;20083;-72
2022/12/19 04:03:01;;;;;;;72.10;33.00;;;-1.10;99.90;;;;;;5072614;28;20049;-68
2022/12/19 04:05:28;;;;;;;72.85;34.97;;;-1.10;99.90;;;;;;5083583;28;20060;-68
2022/12/19 04:07:57;;;;;;;73.00;33.05;;;-1.00;99.90;;;;;;5072626;28;20032;-69
2022/12/19 04:10:26;;;;;;;69.78;32.25;;;-1.00;99.90;;;;;;5064142;28;20027;-68
2022/12/19 04:12:58;;;;;;;68.40;31.98;;;-1.00;99.90;;;;;;5070415;28;20132;-68
2022/12/19 04:15:36;;;;;;;70.60;33.15;;;-1.00;99.90;;;;;;5072777;28;20093;-69
2022/12/19 04:18:05;;;;;;;68.40;31.02;;;-1.00;99.90;;;;;;5072066;28;20066;-68
2022/12/19 04:20:35;;;;;;;71.90;33.03;;;-1.00;99.90;;;;;;5069415;28;20462;-69
2022/12/19 04:23:13;;;;;;;73.78;32.65;;;-1.00;99.90;;;;;;5080162;28;20079;-68
2022/12/19 04:25:44;;;;;;;73.80;32.42;;;-1.00;99.90;;;;;;5071528;28;20036;-68
2022/12/19 04:28:25;;;;;;;70.22;33.05;;;-1.00;99.90;;;;;;5071214;28;20119;-68
2022/12/19 04:30:52;;;;;;;74.18;33.90;;;-0.90;99.90;;;;;;5058795;28;20031;-68
2022/12/19 04:33:18;;;;;;;69.18;33.05;;;-0.90;99.90;;;;;;5072278;28;20060;-68
2022/12/19 04:35:43;;;;;;;72.95;33.97;;;-0.90;99.90;;;;;;5071334;28;20442;-68
2022/12/19 04:38:09;;;;;;;71.63;33.97;;;-0.80;99.90;;;;;;5071236;28;20103;-68
2022/12/19 04:40:35;;;;;;;70.30;32.58;;;-0.80;99.90;;;;;;5079611;28;20043;-68
2022/12/19 04:43:00;;;;;;;79.47;34.60;;;-0.80;99.90;;;;;;5064516;28;20059;-68
2022/12/19 04:45:26;;;;;;;70.82;32.67;;;-0.80;99.90;;;;;;5072283;28;20028;-68
2022/12/19 04:47:51;;;;;;;73.78;33.95;;;-0.80;99.90;;;;;;5070890;28;20024;-69
2022/12/19 04:50:17;;;;;;;72.00;34.72;;;-0.80;99.90;;;;;;5072385;28;20034;-68
2022/12/19 04:52:42;;;;;;;72.38;32.97;;;-0.70;99.90;;;;;;5069799;28;20040;-69
2022/12/19 04:55:09;;;;;;;73.45;33.28;;;-0.70;99.90;;;;;;5072737;28;21851;-68
2022/12/19 04:57:34;;;;;;;68.80;32.03;;;-0.60;99.90;;;;;;5082143;28;20465;-68
2022/12/19 05:00:02;;;;;;;69.75;32.22;;;-0.60;99.90;;;;;;5071634;28;20035;-68
2022/12/19 05:02:28;;;;;;;73.80;33.13;;;-0.60;99.90;;;;;;5071337;28;20033;-69
2022/12/19 05:04:54;;;;;;;73.07;31.08;;;-0.60;99.90;;;;;;5070672;28;20094;-67
2022/12/19 05:07:20;;;;;;;69.78;31.15;;;-0.60;99.90;;;;;;5070801;28;20455;-68
2022/12/19 05:09:45;;;;;;;66.47;30.80;;;-0.60;99.90;;;;;;5070974;28;20056;-68
2022/12/19 05:12:11;;;;;;;70.10;30.33;;;-0.60;99.90;;;;;;5082423;28;20110;-68
2022/12/19 05:14:37;;;;;;;69.32;30.83;;;-0.60;99.90;;;;;;5070842;28;20474;-69
2022/12/19 05:17:02;;;;;;;73.75;31.77;;;-0.60;99.90;;;;;;5070020;28;20028;-68
2022/12/19 05:19:28;;;;;;;65.47;28.90;;;-0.60;99.90;;;;;;5071369;28;20109;-68
2022/12/19 05:21:53;;;;;;;65.35;29.65;;;-0.60;99.90;;;;;;5069675;28;20110;-68
2022/12/19 05:24:19;;;;;;;65.68;30.75;;;-0.60;99.90;;;;;;5069511;28;20028;-68
2022/12/19 05:26:44;;;;;;;68.90;31.33;;;-0.60;99.90;;;;;;5068487;28;20046;-69
2022/12/19 05:29:10;;;;;;;74.68;32.15;;;-0.60;99.90;;;;;;5072290;28;20041;-66
2022/12/19 05:31:36;;;;;;;63.15;28.10;;;-0.60;99.90;;;;;;5070182;28;20103;-66
2022/12/19 05:34:01;;;;;;;72.28;31.35;;;-0.60;99.90;;;;;;5071081;28;20441;-66
2022/12/19 05:36:27;;;;;;;74.78;30.55;;;-0.60;99.90;;;;;;5070278;28;20064;-66
2022/12/19 05:38:53;;;;;;;78.28;32.25;;;-0.60;99.90;;;;;;5070120;28;20116;-67
2022/12/19 05:41:20;;;;;;;81.28;33.72;;;-0.60;99.90;;;;;;5069415;28;20020;-67
2022/12/19 05:43:49;;;;;;;70.32;31.05;;;-0.50;99.90;;;;;;5069075;28;20043;-66
2022/12/19 05:46:15;;;;;;;80.00;33.10;;;-0.50;99.90;;;;;;5071207;28;20054;-67
2022/12/19 05:48:41;;;;;;;74.07;33.95;;;-0.50;99.90;;;;;;5051260;28;20039;-67
2022/12/19 05:51:07;;;;;;;74.32;31.83;;;-0.50;99.90;;;;;;5069572;28;20036;-67
2022/12/19 05:53:36;;;;;;;70.97;32.97;;;-0.50;99.90;;;;;;5068821;28;20027;-73
2022/12/19 05:56:09;;;;;;;81.13;32.88;;;-0.40;99.90;;;;;;5069880;28;20020;-69
2022/12/19 05:58:36;;;;;;;73.53;32.45;;;-0.40;99.90;;;;;;5069648;28;20392;-67
2022/12/19 06:01:08;;;;;;;73.90;31.45;;;-0.40;99.90;;;;;;5069026;28;20389;-67
2022/12/19 06:03:34;;;;;;;79.63;34.55;;;-0.40;99.90;;;;;;5068747;28;20427;-67
2022/12/19 06:06:05;;;;;;;73.28;32.13;;;-0.40;99.90;;;;;;5069829;28;20025;-67
2022/12/19 06:08:31;;;;;;;74.15;32.95;;;-0.40;99.90;;;;;;5069597;28;20082;-67
2022/12/19 06:11:01;;;;;;;71.32;31.60;;;-0.40;99.90;;;;;;5069743;28;20028;-67
2022/12/19 06:13:28;;;;;;;81.15;34.97;;;-0.40;99.90;;;;;;5068887;28;20550;-67
2022/12/19 06:16:01;;;;;;;75.18;32.05;;;-0.40;99.90;;;;;;5068723;28;20036;-67
2022/12/19 06:18:28;;;;;;;76.95;33.03;;;-0.40;99.90;;;;;;5068078;28;20033;-68
2022/12/19 06:21:00;;;;;;;73.03;31.20;;;-0.40;99.90;;;;;;5066800;28;20486;-68
2022/12/19 06:23:28;;;;;;;74.55;34.38;;;-0.40;99.90;;;;;;5068562;28;20032;-72
2022/12/19 06:25:58;;;;;;;75.80;32.88;;;-0.40;99.90;;;;;;5068910;28;20041;-74
2022/12/19 06:28:25;;;;;;;77.93;33.72;;;-0.30;99.90;;;;;;5068618;28;20516;-70
2022/12/19 06:30:51;;;;;;;84.07;34.75;;;-0.30;99.90;;;;;;5067506;28;20029;-77
2022/12/19 06:33:17;;;;;;;74.57;32.80;;;-0.30;99.90;;;;;;5069571;28;20021;-75
2022/12/19 06:35:43;;;;;;;77.22;32.88;;;-0.30;99.90;;;;;;5066768;28;20071;-72
2022/12/19 06:38:08;;;;;;;76.38;34.65;;;-0.30;99.90;;;;;;5072811;28;20040;-73
2022/12/19 06:43:18;;;;;;;76.50;34.20;;;-0.30;99.90;;;;;;5071390;28;20487;-71
2022/12/19 06:45:44;;;;;;;77.05;32.63;;;-0.30;99.90;;;;;;5071644;28;20090;-72
2022/12/19 06:48:09;;;;;;;80.40;35.70;;;;;;;;;;5072566;28;20035;-69
2022/12/19 06:50:35;;;;;;;78.18;33.75;;;;;;;;;;5071700;28;20020;-71
2022/12/19 06:53:04;;;;;;;71.40;32.50;;;-0.10;99.90;;;;;;5071686;28;20479;-68
2022/12/19 06:55:30;;;;;;;80.97;33.22;;;-0.20;99.90;;;;;;5072801;28;20032;-70
2022/12/19 06:57:56;;;;;;;76.70;31.88;;;-0.20;99.90;;;;;;5072450;28;20035;-69
2022/12/19 07:00:21;;;;;;;84.32;34.03;;;-0.20;99.90;;;;;;5073343;28;20032;-69
2022/12/19 07:02:50;;;;;;;69.03;31.65;;;-0.20;99.90;;;;;;5071767;28;20652;-69
2022/12/19 07:05:16;;;;;;;75.85;32.65;;;-0.20;99.90;;;;;;5073147;28;20036;-69
2022/12/19 07:07:41;;;;;;;80.50;33.85;;;-0.20;99.90;;;;;;5071634;28;20091;-69
2022/12/19 07:10:09;;;;;;;79.82;32.30;;;-0.20;99.90;;;;;;5073710;28;20031;-70
2022/12/19 07:12:35;;;;;;;73.10;32.03;;;-0.10;99.90;;;;;;5072167;28;20489;-68
2022/12/19 07:15:00;;;;;;;81.00;34.38;;;-0.10;99.90;;;;;;5072690;28;20052;-69
2022/12/19 07:17:28;;;;;;;80.47;32.33;;;-0.10;99.90;;;;;;5072103;28;20059;-69
2022/12/19 07:19:55;;;;;;;82.40;32.40;;;-0.10;99.90;;;;;;5072037;28;20024;-69
2022/12/19 07:22:22;;;;;;;80.13;32.97;;;-0.10;99.90;;;;;;5072432;28;20436;-69
2022/12/19 07:24:48;;;;;;;76.47;33.25;;;0.00;99.90;;;;;;5072163;28;20259;-68
2022/12/19 07:27:14;;;;;;;81.65;34.55;;;0.00;99.90;;;;;;5070539;28;20477;-68
2022/12/19 07:29:39;;;;;;;78.30;33.85;;;0.00;99.90;;;;;;5072215;28;20052;-68
2022/12/19 07:32:05;;;;;;;79.47;32.67;;;0.00;99.90;;;;;;5072088;28;20036;-68
2022/12/19 07:34:30;;;;;;;86.15;35.20;;;0.00;99.90;;;;;;5071741;28;20048;-70
2022/12/19 07:36:56;;;;;;;76.53;33.58;;;0.00;99.90;;;;;;5071860;28;20047;-68
2022/12/19 07:39:21;;;;;;;87.15;36.08;;;0.10;99.90;;;;;;5073506;28;20458;-72
2022/12/19 07:41:47;;;;;;;77.53;34.08;;;0.10;99.90;;;;;;5071674;28;20082;-69
2022/12/19 07:44:15;;;;;;;76.80;34.15;;;0.10;99.90;;;;;;5072339;28;20029;-70
2022/12/19 07:46:41;;;;;;;78.75;32.22;;;0.20;99.90;;;;;;5070106;28;20042;-70
2022/12/19 07:49:07;;;;;;;75.80;33.05;;;0.20;99.90;;;;;;5072438;28;20020;-66
2022/12/19 07:51:32;;;;;;;77.22;33.88;;;0.20;99.90;;;;;;5072373;28;20035;-74
2022/12/19 07:53:58;;;;;;;77.93;33.83;;;0.30;99.90;;;;;;5072761;28;20024;-70
2022/12/19 07:56:24;;;;;;;78.18;34.53;;;0.30;99.90;;;;;;5055907;28;20498;-69
2022/12/19 07:58:50;;;;;;;78.50;33.20;;;0.40;99.90;;;;;;5062183;28;20025;-69
2022/12/19 08:01:16;;;;;;;83.60;35.65;;;0.40;99.90;;;;;;5070489;28;20108;-70
2022/12/19 08:03:42;;;;;;;78.82;33.60;;;;;;;;;;5063950;28;20599;-70
2022/12/19 08:06:08;;;;;;;76.07;33.28;;;;;;;;;;5071875;28;20381;-70
2022/12/19 08:08:36;;;;;;;82.55;35.70;;;;;;;;;;5071148;28;20031;-70
2022/12/19 08:11:25;;;;;;;72.32;32.60;;;;;;;;;;5079771;28;20020;-70
2022/12/19 08:13:51;;;;;;;75.45;35.22;;;;;;;;;;5069734;28;20044;-70
2022/12/19 08:16:17;;;;;;;70.63;32.22;;;;;;;;;;5064426;28;20190;-70
2022/12/19 08:18:43;;;;;;;64.85;30.52;;;;;;;;;;5062247;28;20029;-70
2022/12/19 08:21:10;;;;;;;67.72;31.73;;;;;;;;;;5066110;28;20527;-70
2022/12/19 08:23:37;;;;;;;64.40;29.63;;;;;;;;;;5074483;28;20474;-72
2022/12/19 08:26:05;;;;;;;70.47;31.02;;;;;;;;;;5071508;28;20029;-72
2022/12/19 08:28:32;;;;;;;59.25;30.10;;;;;;;;;;5053371;28;20088;-69
2022/12/19 08:31:09;;;;;;;60.80;28.25;;;;;;;;;;5036628;28;20182;-69
2022/12/19 08:33:35;;;;;;;66.88;30.98;;;;;;;;;;5032983;28;20025;-69
2022/12/19 08:36:05;;;;;;;66.47;32.10;;;;;;;;;;5030934;28;20079;-69
2022/12/19 08:38:31;;;;;;;68.13;31.92;;;;;;;;;;5028791;28;20018;-68
2022/12/19 08:40:57;;;;;;;61.90;31.25;;;;;;;;;;5028382;28;20028;-69
2022/12/19 08:43:24;;;;;;;62.58;30.15;;;;;;;;;;5032225;28;20044;-69
2022/12/19 08:45:50;;;;;;;59.10;29.38;;;;;;;;;;5024181;28;20723;-70
2022/12/19 08:48:16;;;;;;;60.90;29.77;;;;;;;;;;5025070;28;20100;-71
2022/12/19 08:51:08;;;;;;;67.03;32.83;;;;;;;;;;5017729;28;20029;-71
2022/12/19 08:53:37;;;;;;;66.25;30.95;;;;;;;;;;5019478;28;20042;-71
2022/12/19 08:56:07;;;;;;;56.67;29.92;;;2.00;99.90;;;;;;5030517;28;20038;-71
2022/12/19 08:58:33;;;;;;;59.30;28.17;;;2.00;99.90;;;;;;5022820;28;20033;-72
2022/12/19 09:01:04;;;;;;;56.20;27.95;;;2.00;99.90;;;;;;5017626;28;20030;-71
2022/12/19 09:03:30;;;;;;;58.70;28.65;;;2.00;99.90;;;;;;5024125;28;20050;-70
2022/12/19 09:06:03;;;;;;;61.67;30.13;;;2.10;99.90;;;;;;5029728;28;20069;-71
2022/12/19 09:08:30;;;;;;;58.58;28.55;;;2.10;99.90;;;;;;5029721;28;20022;-70
2022/12/19 09:11:02;;;;;;;58.63;28.60;;;2.10;99.90;;;;;;5030496;28;20036;-71
2022/12/19 09:13:29;;;;;;;59.25;28.30;;;2.20;99.90;;;;;;5012421;28;20037;-71
2022/12/19 09:16:13;;;;;;;55.00;27.42;;;2.30;99.90;;;;;;5030042;28;20036;-71
2022/12/19 09:18:39;;;;;;;55.35;28.42;;;2.30;99.90;;;;;;5032362;28;20474;-71
2022/12/19 09:21:05;;;;;;;56.55;28.42;;;2.30;99.90;;;;;;5038254;28;20042;-71
2022/12/19 09:23:33;;;;;;;60.78;28.42;;;2.40;99.90;;;;;;5029440;28;20078;-72
2022/12/19 09:26:07;;;;;;;62.22;29.55;;;2.40;99.90;;;;;;5030542;28;20104;-71
2022/12/19 09:28:34;;;;;;;57.63;28.33;;;2.50;99.90;;;;;;5018517;28;20049;-70
2022/12/19 09:31:03;;;;;;;59.92;29.17;;;2.50;99.90;;;;;;5037067;28;20032;-70
2022/12/19 09:33:30;;;;;;;60.00;30.58;;;2.60;99.90;;;;;;5027418;28;20120;-70
2022/12/19 09:35:56;;;;;;;62.97;31.88;;;2.70;99.90;;;;;;5030259;28;20030;-71
2022/12/19 09:38:24;;;;;;;56.17;29.95;;;2.70;99.90;;;;;;5030036;28;20033;-70
2022/12/19 09:41:12;;;;;;;57.65;27.98;;;2.80;99.90;;;;;;5029927;28;20032;-70
2022/12/19 09:44:01;;;;;;;57.63;27.80;;;2.90;99.90;;;;;;5010280;28;20041;-70
2022/12/19 09:46:36;;;;;;;61.13;28.52;;;3.00;99.90;;;;;;5000405;28;20120;-70
2022/12/19 09:49:02;;;;;;;62.75;29.73;;;3.10;99.90;;;;;;5030429;28;20022;-70
2022/12/19 09:51:39;;;;;;;55.97;29.75;;;3.20;99.90;;;;;;5031107;28;20036;-70
2022/12/19 09:54:31;;;;;;;54.53;28.60;;;3.30;99.90;;;;;;5030572;28;20033;-71
2022/12/19 09:57:00;;;;;;;55.80;28.25;;;;;;;;;;5034610;28;20462;-71
2022/12/19 09:59:26;;;;;;;51.30;26.75;;;;;;;;;;5030711;28;20534;-71
2022/12/19 10:02:00;;;;;;;48.50;26.75;;;;;;;;;;5028323;28;20109;-69
2022/12/19 10:04:29;;;;;;;55.88;27.60;;;;;;;;;;5029030;28;20419;-69
2022/12/19 10:06:55;;;;;;;53.40;26.42;;;;;;;;;;5028860;28;20033;-69
2022/12/19 10:09:23;;;;;;;55.83;28.75;;;;;;;;;;5031565;28;20374;-70
2022/12/19 10:12:07;;;;;;;53.13;28.95;;;4.50;99.90;;;;;;5032525;28;20069;-70
2022/12/19 10:14:38;;;;;;;60.05;29.10;;;4.50;99.90;;;;;;5032403;28;20024;-70
2022/12/19 10:17:31;;;;;;;62.45;30.30;;;4.70;99.90;;;;;;5033711;28;20037;-70
2022/12/19 10:20:14;;;;;;;55.47;29.20;;;4.90;99.90;;;;;;5034450;28;20032;-69
2022/12/19 10:23:21;;;;;;;58.33;30.25;;;5.00;99.90;;;;;;5019981;28;20034;-71
2022/12/19 10:25:55;;;;;;;57.92;29.40;;;5.10;99.90;;;;;;5032843;28;20055;-71
2022/12/19 10:28:40;;;;;;;58.15;29.52;;;5.00;99.90;;;;;;5041644;28;20120;-71
2022/12/19 10:31:22;;;;;;;56.28;28.90;;;5.00;99.90;;;;;;5061316;28;20108;-70
2022/12/19 10:34:18;;;;;;;54.72;28.15;;;4.90;99.90;;;;;;5055729;28;20021;-70
2022/12/19 10:36:55;;;;;;;57.17;28.77;;;4.90;99.90;;;;;;5048716;28;20099;-71
2022/12/19 10:40:03;;;;;;;60.53;27.10;;;4.80;99.90;;;;;;5054279;28;20104;-72
2022/12/19 10:42:51;;;;;;;54.33;26.63;;;4.70;99.90;;;;;;5052230;28;20041;-68
2022/12/19 10:45:19;;;;;;;60.35;28.65;;;4.70;99.90;;;;;;5054774;28;20035;-70
2022/12/19 10:47:56;;;;;;;56.13;30.00;;;4.70;99.90;;;;;;5052269;28;20029;-70
2022/12/19 10:50:30;;;;;;;56.15;30.00;;;4.70;99.90;;;;;;5050072;28;20029;-71
2022/12/19 10:53:06;;;;;;;56.85;28.45;;;4.80;99.90;;;;;;5050402;28;20013;-71
2022/12/19 10:55:49;;;;;;;61.65;29.25;;;4.80;99.90;;;;;;5050335;28;20025;-71
2022/12/19 10:58:25;;;;;;;52.38;28.98;;;4.80;99.90;;;;;;5052415;28;20037;-71
2022/12/19 11:00:59;;;;;;;48.85;25.95;;;4.70;99.90;;;;;;5051332;28;20105;-69
2022/12/19 11:03:25;;;;;;;53.17;28.98;;;4.80;99.90;;;;;;5034101;28;20029;-70
2022/12/19 11:05:53;;;;;;;51.50;27.33;;;4.80;99.90;;;;;;5052500;28;20040;-70
2022/12/19 11:08:23;;;;;;;54.28;28.20;;;4.90;99.90;;;;;;5034977;28;20031;-71
2022/12/19 11:10:55;;;;;;;54.95;29.75;;;4.90;99.90;;;;;;5052077;28;20060;-70
2022/12/19 11:13:23;;;;;;;53.00;28.45;;;4.90;99.90;;;;;;5051918;28;20025;-70
2022/12/19 11:15:57;;;;;;;60.80;30.55;;;5.00;99.90;;;;;;5051870;28;20055;-71
2022/12/19 11:18:33;;;;;;;54.78;29.70;;;5.00;99.90;;;;;;5052495;28;20036;-74
2022/12/19 11:21:02;;;;;;;56.03;28.38;;;5.00;99.90;;;;;;5049774;28;20033;-73
2022/12/19 11:23:30;;;;;;;52.08;27.50;;;5.10;99.90;;;;;;5051905;28;20056;-74
2022/12/19 11:25:58;;;;;;;48.72;26.23;;;5.10;99.90;;;;;;5052174;28;20044;-73
2022/12/19 11:28:34;;;;;;;53.80;27.45;;;5.20;99.90;;;;;;5054587;28;20060;-71
2022/12/19 11:31:20;;;;;;;59.38;31.42;;;5.20;99.90;;;;;;5050913;28;20025;-73
2022/12/19 11:33:52;;;;;;;65.07;31.40;;;5.40;99.90;;;;;;5052200;28;20037;-70
2022/12/19 11:36:44;;;;;;;59.13;30.38;;;;;;;;;;5052812;28;20108;-68
2022/12/19 11:39:15;;;;;;;59.28;29.80;;;;;;;;;;5032001;28;20048;-68
2022/12/19 11:41:45;;;;;;;56.30;27.65;;;;;;;;;;5053893;28;20032;-74
2022/12/19 11:44:17;;;;;;;54.30;29.13;;;;;;;;;;5053845;28;20541;-69
2022/12/19 11:46:45;;;;;;;54.67;28.38;;;;;;;;;;5050903;28;20044;-70
2022/12/19 11:49:11;;;;;;;60.35;28.42;;;;;;;;;;5056385;28;20377;-69
2022/12/19 11:51:43;;;;;;;55.08;29.38;;;;;;;;;;5052256;28;20021;-69
2022/12/19 11:54:12;;;;;;;50.58;28.08;;;;;;;;;;5048118;28;20075;-69
2022/12/19 11:56:38;;;;;;;57.33;28.90;;;5.90;99.90;;;;;;5053579;28;20489;-69
2022/12/19 11:59:15;;;;;;;54.40;27.30;;;5.90;99.90;;;;;;5048157;28;20033;-69
2022/12/19 12:01:50;;;;;;;50.75;27.08;;;5.90;99.90;;;;;;5046599;28;20025;-69
2022/12/19 12:04:34;;;;;;;48.45;27.35;;;5.80;99.90;;;;;;5048658;28;20077;-69
2022/12/19 12:06:59;;;;;;;46.70;25.63;;;5.80;99.90;;;;;;5051774;28;20025;-70
2022/12/19 12:09:44;;;;;;;45.30;24.67;;;5.80;99.90;;;;;;5052115;28;20028;-70
2022/12/19 12:12:47;;;;;;;46.58;25.20;;;5.80;99.90;;;;;;5048244;28;20025;-70
2022/12/19 12:15:31;;;;;;;45.97;25.38;;;5.90;99.90;;;;;;5051773;28;20029;-69
2022/12/19 12:18:11;;;;;;;45.00;24.98;;;6.00;99.90;;;;;;5046210;28;20124;-70
2022/12/19 12:20:54;;;;;;;46.38;25.77;;;6.10;99.90;;;;;;5046598;28;20090;-69
2022/12/19 12:23:34;;;;;;;46.38;26.75;;;6.20;99.90;;;;;;5059321;28;20031;-69
2022/12/19 12:26:28;;;;;;;49.28;25.75;;;6.30;99.90;;;;;;5051600;28;20033;-69
2022/12/19 12:29:44;;;;;;;48.05;27.58;;;6.40;99.90;;;;;;5049150;28;20045;-68
2022/12/19 12:32:21;;;;;;;48.63;27.02;;;6.40;99.90;;;;;;5010715;28;20037;-69
2022/12/19 12:35:25;;;;;;;45.17;26.80;;;6.40;99.90;;;;;;5050892;28;20021;-69
2022/12/19 12:38:05;;;;;;;48.28;28.00;;;6.40;99.90;;;;;;4989108;28;20042;-69
2022/12/19 12:40:54;;;;;;;45.55;27.30;;;6.30;99.90;;;;;;4976387;28;20538;-71
2022/12/19 12:43:59;;;;;;;50.03;27.63;;;6.20;99.90;;;;;;4987036;28;20046;-68
2022/12/19 12:46:30;;;;;;;51.00;28.52;;;6.10;99.90;;;;;;4976787;28;20038;-69
2022/12/19 12:49:04;;;;;;;49.72;28.73;;;6.00;99.90;;;;;;4988746;28;20050;-69
2022/12/19 12:51:32;;;;;;;46.30;27.70;;;6.00;99.90;;;;;;4986758;28;20100;-71
2022/12/19 12:54:16;;;;;;;53.58;30.23;;;6.00;99.90;;;;;;4991809;28;20522;-69
2022/12/19 12:56:44;;;;;;;56.83;31.10;;;6.00;99.90;;;;;;4997507;28;20046;-70
2022/12/19 12:59:25;;;;;;;53.10;27.83;;;6.10;99.90;;;;;;4991387;28;20611;-70
2022/12/19 13:01:55;;;;;;;47.00;26.35;;;6.10;99.90;;;;;;4987596;28;20040;-71
2022/12/19 13:04:26;;;;;;;45.47;26.85;;;6.10;99.90;;;;;;4989430;28;20125;-69
2022/12/19 13:06:51;;;;;;;49.10;27.20;;;6.20;99.90;;;;;;4988016;28;20061;-70
2022/12/19 13:09:23;;;;;;;43.00;25.35;;;6.30;99.90;;;;;;5033415;28;20037;-69
2022/12/19 13:14:39;;;;;;;53.90;30.10;;;6.40;99.90;;;;;;5046043;28;20443;-69